Time;durP1;ratioP1;P1;durP2;ratioP2;P2;SDS_P1;SDS_P2;PMS_P1;PMS_P2;Temp;Humidity;BMP_temperature;BMP_pressure;BME280_temperature;BME280_humidity;BME280_pressure;Samples;Min_cycle;Max_cycle;Signal;HPM_P1;HPM_P2
2023/01/06 00:00:34;;;;;;;40.75;13.65;;;;;;;6.41;100.00;99634.81;1628414;85;21031;-86
2023/01/06 00:03:01;;;;;;;43.40;14.70;;;;;;;6.42;100.00;99634.30;1662946;85;21108;-86
2023/01/06 00:05:30;;;;;;;36.50;14.63;;;;;;;6.40;100.00;99634.55;1632580;85;21089;-86
2023/01/06 00:07:57;;;;;;;41.80;13.45;;;;;;;6.41;100.00;99634.02;1700478;83;21268;-86
2023/01/06 00:10:23;;;;;;;40.88;15.15;;;;;;;6.41;100.00;99638.02;1708340;82;21071;-86
2023/01/06 00:12:50;;;;;;;38.48;13.75;;;;;;;6.40;100.00;99639.89;1715710;83;21055;-86
2023/01/06 00:15:17;;;;;;;38.70;13.48;;;;;;;6.42;100.00;99637.78;1711874;82;21048;-87
2023/01/06 00:17:44;;;;;;;45.17;13.95;;;;;;;6.43;100.00;99643.40;1682537;83;21070;-86
2023/01/06 00:20:12;;;;;;;35.95;13.58;;;;;;;6.43;100.00;99639.92;1711895;82;21804;-86
2023/01/06 00:22:40;;;;;;;43.05;14.20;;;;;;;6.43;100.00;99639.92;1707528;82;21044;-86
2023/01/06 00:25:09;;;;;;;40.33;13.90;;;;;;;6.45;100.00;99637.27;1711474;83;21035;-86
2023/01/06 00:27:35;;;;;;;42.03;14.25;;;;;;;6.47;100.00;99638.34;1705683;82;21225;-86
2023/01/06 00:30:01;;;;;;;37.00;14.58;;;;;;;6.48;100.00;99645.33;1707834;83;21056;-86
2023/01/06 00:32:28;;;;;;;37.75;15.40;;;;;;;6.48;100.00;99646.12;1710935;82;21183;-86
2023/01/06 00:34:54;;;;;;;37.48;13.70;;;;;;;6.48;100.00;99644.78;1710780;82;21004;-86
2023/01/06 00:37:20;;;;;;;39.30;15.20;;;;;;;6.48;100.00;99649.34;1710444;82;21249;-86
2023/01/06 00:39:46;;;;;;;43.80;14.93;;;;;;;6.50;100.00;99649.36;1713557;82;21027;-86
2023/01/06 00:42:13;;;;;;;41.45;14.35;;;;;;;6.52;100.00;99647.75;1709421;82;21607;-86
2023/01/06 00:44:39;;;;;;;44.27;13.93;;;;;;;6.51;100.00;99653.64;1708550;82;21543;-86
2023/01/06 00:47:08;;;;;;;36.00;12.80;;;;;;;6.50;100.00;99648.53;1711446;82;21569;-85
2023/01/06 00:49:36;;;;;;;40.73;14.65;;;;;;;6.50;100.00;99658.73;1711210;82;21090;-86
2023/01/06 00:52:03;;;;;;;39.18;14.18;;;;;;;6.49;100.00;99662.45;1747381;80;21566;-86
2023/01/06 00:54:29;;;;;;;45.05;14.13;;;;;;;6.49;100.00;99653.62;1748455;82;20989;-86
2023/01/06 00:56:55;;;;;;;39.33;14.95;;;;;;;6.51;100.00;99654.17;1748258;80;21094;-86
2023/01/06 00:59:24;;;;;;;41.23;15.28;;;;;;;6.53;100.00;99655.54;1748219;80;21062;-86
2023/01/06 01:01:54;;;;;;;43.10;15.45;;;;;;;6.54;100.00;99659.02;1748263;81;21519;-86
2023/01/06 01:04:22;;;;;;;45.92;15.90;;;;;;;6.55;100.00;99648.03;1748146;82;21016;-86
2023/01/06 01:06:50;;;;;;;44.83;15.80;;;;;;;6.57;100.00;99643.78;1748334;80;21093;-85
2023/01/06 01:09:21;;;;;;;38.13;14.65;;;;;;;6.57;100.00;99646.45;1748535;80;21655;-86
2023/01/06 01:14:33;;;;;;;42.48;14.45;;;;;;;6.57;100.00;99643.24;1747978;80;21047;-86
2023/01/06 01:16:59;;;;;;;39.65;14.35;;;;;;;6.57;100.00;99649.13;1748564;80;21052;-86
2023/01/06 01:19:26;;;;;;;40.33;14.35;;;;;;;6.56;100.00;99648.33;1748256;80;21015;-86
2023/01/06 01:21:53;;;;;;;37.60;13.40;;;;;;;6.59;100.00;99648.36;1748431;80;21172;-86
2023/01/06 01:24:20;;;;;;;43.15;13.28;;;;;;;6.56;100.00;99643.52;1748326;80;21074;-86
2023/01/06 01:26:47;;;;;;;36.15;13.45;;;;;;;6.56;100.00;99644.32;1748533;80;21031;-86
2023/01/06 01:29:16;;;;;;;40.15;13.72;;;;;;;6.59;100.00;99643.00;1748435;80;20992;-85
2023/01/06 01:31:43;;;;;;;36.65;13.70;;;;;;;6.58;100.00;99640.83;1748536;80;21058;-86
2023/01/06 01:34:12;;;;;;;40.38;13.88;;;;;;;6.58;100.00;99636.81;1748248;80;21146;-86
2023/01/06 01:36:43;;;;;;;39.48;14.75;;;;;;;6.60;100.00;99640.59;1748264;80;20990;-86
2023/01/06 01:39:11;;;;;;;36.30;14.18;;;;;;;6.59;100.00;99640.33;1748493;82;21086;-85
2023/01/06 01:41:38;;;;;;;33.63;13.25;;;;;;;6.60;100.00;99639.25;1748393;80;21565;-86
2023/01/06 01:44:55;;;;;;;35.40;12.88;;;;;;;6.59;100.00;99641.66;1748543;80;21519;-86
2023/01/06 01:47:55;;;;;;;43.08;14.03;;;;;;;6.59;100.00;99638.45;1748716;80;21152;-85
2023/01/06 01:50:35;;;;;;;40.73;12.63;;;;;;;6.60;100.00;99646.74;1748101;80;21079;-86
2023/01/06 01:53:13;;;;;;;38.50;13.05;;;;;;;6.60;100.00;99644.61;1748472;80;21043;-86
2023/01/06 01:55:40;;;;;;;34.33;12.25;;;;;;;6.59;100.00;99644.34;1623017;88;21107;-86
2023/01/06 01:58:13;;;;;;;32.88;13.00;;;;;;;6.62;100.00;99645.67;1579013;87;21052;-86
2023/01/06 02:00:43;;;;;;;33.15;13.18;;;;;;;6.62;100.00;99644.33;1568633;89;21234;-86
2023/01/06 02:03:12;;;;;;;38.92;13.88;;;;;;;6.64;100.00;99646.23;1608079;88;20988;-86
2023/01/06 02:05:42;;;;;;;36.58;13.55;;;;;;;6.63;100.00;99652.13;1584955;88;21616;-86
2023/01/06 02:08:34;;;;;;;38.63;13.32;;;;;;;6.62;100.00;99653.20;1585077;87;21224;-86
2023/01/06 02:11:02;;;;;;;35.92;13.18;;;;;;;6.60;100.00;99661.47;1581018;87;21603;-86
2023/01/06 02:13:30;;;;;;;35.98;12.90;;;;;;;6.61;100.00;99660.93;1622597;86;21934;-86
2023/01/06 02:16:16;;;;;;;32.75;12.43;;;;;;;6.63;100.00;99671.39;1577275;87;21107;-85
2023/01/06 02:19:03;;;;;;;32.05;13.10;;;;;;;6.62;100.00;99673.27;1604025;86;21104;-85
2023/01/06 02:22:11;;;;;;;35.70;12.90;;;;;;;6.62;100.00;99669.77;1588144;86;21043;-86
2023/01/06 02:25:20;;;;;;;39.45;13.18;;;;;;;6.63;100.00;99671.39;1578726;88;21104;-86
2023/01/06 02:28:20;;;;;;;35.05;12.53;;;;;;;6.63;100.00;99677.55;1592953;87;21171;-86
2023/01/06 02:31:31;;;;;;;39.48;13.08;;;;;;;6.63;100.00;99666.04;1583263;87;21204;-85
2023/01/06 02:34:05;;;;;;;36.73;12.65;;;;;;;6.63;100.00;99668.72;1701952;82;21051;-85
2023/01/06 02:36:46;;;;;;;32.70;12.65;;;;;;;6.62;100.00;99669.77;1718010;81;20981;-86
2023/01/06 02:39:21;;;;;;;37.78;13.43;;;;;;;6.61;100.00;99674.31;1733668;81;21527;-86
2023/01/06 02:42:14;;;;;;;28.83;11.12;;;;;;;6.62;100.00;99671.10;1653379;85;21201;-86
2023/01/06 02:45:18;;;;;;;33.53;11.63;;;;;;;6.63;100.00;99671.39;1591936;89;21113;-86
2023/01/06 02:48:02;;;;;;;35.17;11.85;;;;;;;6.63;100.00;99672.20;1590325;89;22453;-87
2023/01/06 02:50:45;;;;;;;32.45;11.18;;;;;;;6.65;100.00;99675.94;1588477;90;21131;-86
2023/01/06 02:53:26;;;;;;;31.68;11.78;;;;;;;6.65;100.00;99679.45;1591436;89;21844;-86
2023/01/06 02:55:55;;;;;;;29.72;11.55;;;;;;;6.67;100.00;99679.98;1588361;89;21203;-86
2023/01/06 02:58:50;;;;;;;32.38;11.45;;;;;;;6.69;100.00;99682.41;1592236;89;21219;-86
2023/01/06 03:01:22;;;;;;;35.95;10.53;;;;;;;6.70;100.00;99671.44;1503911;93;21264;-86
2023/01/06 03:03:51;;;;;;;26.82;9.95;;;;;;;6.72;100.00;99680.56;1415456;100;21144;-86
2023/01/06 03:06:22;;;;;;;33.60;12.07;;;;;;;6.72;100.00;99673.33;1407583;100;21284;-86
2023/01/06 03:08:51;;;;;;;28.98;10.65;;;;;;;6.73;100.00;99678.15;1394728;100;21237;-86
2023/01/06 03:11:17;;;;;;;33.53;10.50;;;;;;;6.74;100.00;99683.80;1402918;100;21238;-86
2023/01/06 03:14:00;;;;;;;28.17;10.80;;;;;;;6.73;100.00;99674.94;1390225;102;21260;-86
2023/01/06 03:16:27;;;;;;;29.05;10.18;;;;;;;6.70;100.00;99683.48;1391803;102;26600;-85
2023/01/06 03:18:54;;;;;;;22.80;9.55;;;;;;;6.69;100.00;99673.84;1394680;102;21228;-86
2023/01/06 03:21:25;;;;;;;27.02;9.45;;;;;;;6.70;100.00;99678.66;1420192;96;21707;-86
2023/01/06 03:23:52;;;;;;;25.60;9.20;;;;;;;6.69;100.00;99672.51;1470644;95;21271;-86
2023/01/06 03:26:19;;;;;;;30.32;10.30;;;;;;;6.69;100.00;99677.86;1472604;97;21157;-86
2023/01/06 03:28:45;;;;;;;25.32;8.88;;;;;;;6.74;100.00;99673.89;1479339;96;21045;-86
2023/01/06 03:31:34;;;;;;;26.77;8.80;;;;;;;6.75;100.00;99674.16;1475221;96;21156;-86
2023/01/06 03:34:05;;;;;;;21.80;8.40;;;;;;;6.75;100.00;99679.52;1479601;94;21194;-86
2023/01/06 03:36:55;;;;;;;26.00;8.88;;;;;;;6.77;100.00;99677.93;1508398;93;21174;-87
2023/01/06 03:39:58;;;;;;;21.23;7.15;;;;;;;6.78;100.00;99680.33;1606984;86;21193;-88
2023/01/06 03:45:40;;;;;;;19.02;7.55;;;;;;;6.78;100.00;99685.69;1636913;86;21072;-87
2023/01/06 03:48:34;;;;;;;14.68;6.25;;;;;;;6.81;100.00;99689.19;1637390;87;21549;-86
2023/01/06 03:51:43;;;;;;;16.30;6.90;;;;;;;6.83;100.00;99688.41;1633357;86;20998;-87
2023/01/06 03:54:34;;;;;;;13.03;6.08;;;;;;;6.84;100.00;99695.91;1633039;86;21629;-88
2023/01/06 03:57:26;;;;;;;12.78;5.85;;;;;;;6.86;100.00;99694.33;1635391;86;21046;-87
2023/01/06 03:59:57;;;;;;;16.37;6.45;;;;;;;6.87;100.00;99692.72;1593366;85;21111;-88
2023/01/06 04:02:24;;;;;;;14.90;6.53;;;;;;;6.90;100.00;99698.09;1668103;85;21209;-88
2023/01/06 04:05:13;;;;;;;16.48;6.70;;;;;;;6.89;100.00;99697.83;1665702;85;21118;-88
2023/01/06 04:07:40;;;;;;;12.13;5.58;;;;;;;6.92;100.00;99699.99;1674842;85;21067;-88
2023/01/06 04:10:08;;;;;;;21.70;6.83;;;;;;;6.92;100.00;99695.44;1629750;85;21114;-88
2023/01/06 04:12:38;;;;;;;14.75;6.00;;;;;;;6.91;100.00;99697.02;1661197;85;21575;-87
2023/01/06 04:15:17;;;;;;;16.07;6.17;;;;;;;6.91;100.00;99694.34;1663076;85;22071;-88
2023/01/06 04:17:45;;;;;;;17.45;6.53;;;;;;;6.92;100.00;99702.13;1610329;86;21802;-87
2023/01/06 04:20:19;;;;;;;12.50;5.60;;;;;;;6.93;100.00;99703.73;1604317;86;21074;-87
2023/01/06 04:22:45;;;;;;;13.45;5.83;;;;;;;6.96;100.00;99707.77;1596487;87;21558;-87
2023/01/06 04:25:12;;;;;;;13.15;6.37;;;;;;;6.96;100.00;99708.58;1624271;86;21725;-87
2023/01/06 04:27:38;;;;;;;14.58;6.10;;;;;;;6.96;100.00;99708.58;1603461;86;21276;-88
2023/01/06 04:30:06;;;;;;;14.03;5.90;;;;;;;6.99;100.00;99707.25;1603395;87;21173;-87
2023/01/06 04:32:32;;;;;;;17.17;6.17;;;;;;;7.01;100.00;99712.63;1614840;86;21586;-87
2023/01/06 04:34:58;;;;;;;17.50;6.50;;;;;;;7.04;100.00;99711.31;1606807;87;21579;-87
2023/01/06 04:37:24;;;;;;;14.90;6.03;;;;;;;7.05;100.00;99716.94;1626380;85;21077;-87
2023/01/06 04:39:50;;;;;;;14.35;5.95;;;;;;;7.04;100.00;99721.49;1630610;85;21180;-87
2023/01/06 04:42:17;;;;;;;13.75;6.05;;;;;;;7.07;100.00;99724.73;1653817;85;21094;-88
2023/01/06 04:44:43;;;;;;;13.68;5.95;;;;;;;7.08;100.00;99720.98;1649249;85;21078;-87
2023/01/06 04:47:10;;;;;;;16.30;6.42;;;;;;;7.08;100.00;99729.81;1644535;84;21150;-87
2023/01/06 04:49:36;;;;;;;14.33;5.78;;;;;;;7.09;100.00;99727.94;1639252;85;21031;-87
2023/01/06 04:52:03;;;;;;;14.47;5.80;;;;;;;7.08;100.00;99735.17;1652875;85;21227;-87
2023/01/06 04:54:29;;;;;;;13.93;6.35;;;;;;;7.09;100.00;99734.13;1647451;84;21256;-87
2023/01/06 04:56:55;;;;;;;13.55;6.45;;;;;;;7.09;100.00;99739.99;1631110;85;21226;-87
2023/01/06 04:59:21;;;;;;;14.55;6.50;;;;;;;7.11;100.00;99733.85;1649232;84;21232;-87
2023/01/06 05:01:48;;;;;;;11.43;5.90;;;;;;;7.11;100.00;99732.52;1655948;84;21134;-86
2023/01/06 05:04:14;;;;;;;16.82;6.85;;;;;;;7.08;100.00;99731.69;1652670;85;21146;-87
2023/01/06 05:06:40;;;;;;;11.78;5.85;;;;;;;7.07;100.00;99737.59;1643712;85;21696;-88
2023/01/06 05:09:07;;;;;;;16.75;6.30;;;;;;;7.08;100.00;99737.85;1647768;84;21601;-86
2023/01/06 05:11:33;;;;;;;16.27;6.67;;;;;;;7.07;100.00;99746.96;1647571;84;21054;-86
2023/01/06 05:14:00;;;;;;;17.62;6.58;;;;;;;7.07;100.00;99748.30;1681264;82;21047;-86
2023/01/06 05:16:33;;;;;;;17.12;6.85;;;;;;;7.08;100.00;99751.78;1746787;80;21145;-86
2023/01/06 05:19:00;;;;;;;18.95;6.87;;;;;;;7.06;100.00;99749.37;1706973;84;23223;-85
2023/01/06 05:21:29;;;;;;;19.23;7.20;;;;;;;7.05;100.00;99757.12;1706941;84;21158;-85
2023/01/06 05:23:55;;;;;;;17.35;6.65;;;;;;;7.07;100.00;99755.54;1695470;83;21090;-85
2023/01/06 05:26:27;;;;;;;16.00;6.83;;;;;;;7.09;100.00;99757.41;1696647;83;21166;-85
2023/01/06 05:28:54;;;;;;;15.18;6.65;;;;;;;7.08;100.00;99759.82;1705348;84;21823;-85
2023/01/06 05:31:20;;;;;;;18.45;6.70;;;;;;;7.05;100.00;99765.95;1707011;84;21027;-85
2023/01/06 05:33:47;;;;;;;17.73;6.62;;;;;;;7.05;100.00;99773.19;1698327;83;21026;-86
2023/01/06 05:36:17;;;;;;;16.90;6.35;;;;;;;7.06;100.00;99770.81;1695167;83;21027;-86
2023/01/06 05:38:44;;;;;;;14.30;6.20;;;;;;;7.05;100.00;99782.03;1668986;85;21059;-86
2023/01/06 05:41:10;;;;;;;19.30;6.78;;;;;;;7.05;100.00;99779.35;1666783;84;21771;-86
2023/01/06 05:43:37;;;;;;;20.75;7.10;;;;;;;7.07;100.00;99782.33;1661132;84;21605;-85
2023/01/06 05:46:09;;;;;;;16.48;7.17;;;;;;;7.06;100.00;99785.55;1653943;84;21538;-85
2023/01/06 05:48:36;;;;;;;13.40;5.85;;;;;;;7.05;100.00;99787.39;1666853;84;21170;-86
2023/01/06 05:51:06;;;;;;;16.95;6.70;;;;;;;7.04;100.00;99789.80;1681704;84;21126;-83
2023/01/06 05:53:36;;;;;;;15.65;6.55;;;;;;;7.03;100.00;99790.88;1641771;86;21173;-85
2023/01/06 05:56:05;;;;;;;18.15;7.50;;;;;;;7.05;100.00;99795.96;1634201;86;21082;-85
2023/01/06 05:58:32;;;;;;;16.67;6.40;;;;;;;7.07;100.00;99803.22;1561180;91;21073;-85
2023/01/06 06:01:00;;;;;;;16.75;6.78;;;;;;;7.09;100.00;99798.93;1567501;91;21106;-89
2023/01/06 06:03:26;;;;;;;15.00;6.37;;;;;;;7.09;100.00;99800.27;1565028;91;21106;-85
2023/01/06 06:05:53;;;;;;;14.80;6.50;;;;;;;7.09;100.00;99805.63;1565066;91;21178;-86
2023/01/06 06:08:19;;;;;;;16.02;7.00;;;;;;;7.08;100.00;99812.86;1561917;91;21117;-85
2023/01/06 06:10:45;;;;;;;17.92;6.58;;;;;;;7.08;100.00;99816.08;1558603;91;21254;-85
2023/01/06 06:13:11;;;;;;;15.35;7.37;;;;;;;7.08;100.00;99816.08;1562370;90;21083;-82
2023/01/06 06:15:38;;;;;;;19.50;6.72;;;;;;;7.08;100.00;99820.09;1560778;91;21038;-85
2023/01/06 06:18:04;;;;;;;13.58;6.08;;;;;;;7.09;100.00;99821.70;1557607;91;21128;-85
2023/01/06 06:20:30;;;;;;;19.40;6.17;;;;;;;7.13;100.00;99824.16;1550346;91;21062;-85
2023/01/06 06:22:56;;;;;;;14.03;6.35;;;;;;;7.14;100.00;99825.77;1555959;91;21611;-85
2023/01/06 06:25:23;;;;;;;12.23;5.70;;;;;;;7.16;100.00;99826.33;1555360;91;21606;-85
2023/01/06 06:27:49;;;;;;;15.55;6.00;;;;;;;7.19;100.00;99832.52;1555430;91;21665;-86
2023/01/06 06:30:16;;;;;;;15.30;6.17;;;;;;;7.20;100.00;99836.80;1557668;91;22153;-85
2023/01/06 06:32:42;;;;;;;17.57;7.03;;;;;;;7.20;100.00;99838.94;1560472;91;21154;-85
2023/01/06 06:35:09;;;;;;;13.22;6.37;;;;;;;7.18;100.00;99841.09;1567097;87;21198;-83
2023/01/06 06:37:35;;;;;;;14.35;5.90;;;;;;;7.17;100.00;99846.69;1594161;87;21140;-83
2023/01/06 06:40:01;;;;;;;10.78;5.47;;;;;;;7.17;100.00;99850.71;1581761;88;21047;-84
2023/01/06 06:42:27;;;;;;;13.08;6.15;;;;;;;7.14;100.00;99844.53;1591180;88;21187;-84
2023/01/06 06:44:53;;;;;;;14.03;6.30;;;;;;;7.15;100.00;99852.33;1576129;89;21197;-83
2023/01/06 06:47:20;;;;;;;16.55;6.53;;;;;;;7.16;100.00;99853.12;1572134;89;21107;-83
2023/01/06 06:49:46;;;;;;;11.85;6.25;;;;;;;7.17;100.00;99853.39;1580122;89;21068;-84
2023/01/06 06:52:12;;;;;;;16.62;6.78;;;;;;;7.17;100.00;99857.41;1590703;89;21163;-84
2023/01/06 06:54:38;;;;;;;13.15;5.80;;;;;;;7.18;100.00;99860.39;1584668;87;21069;-84
2023/01/06 06:57:05;;;;;;;13.30;6.03;;;;;;;7.17;100.00;99865.45;1651750;84;21107;-82
2023/01/06 06:59:31;;;;;;;11.95;6.30;;;;;;;7.16;100.00;99865.98;1681957;84;21025;-83
2023/01/06 07:01:57;;;;;;;14.70;5.55;;;;;;;7.19;100.00;99867.34;1660661;84;21079;-83
2023/01/06 07:04:23;;;;;;;12.75;5.60;;;;;;;7.19;100.00;99870.03;1682384;84;21063;-84
2023/01/06 07:06:50;;;;;;;11.50;6.17;;;;;;;7.21;100.00;99868.72;1678006;83;21082;-83
2023/01/06 07:09:16;;;;;;;13.20;5.35;;;;;;;7.24;100.00;99874.10;1681898;84;20956;-84
2023/01/06 11:17:58;;;;;;;16.95;6.87;;;;;;;1.25;100.00;100339.45;1816983;78;26225;-86
2023/01/06 11:20:29;;;;;;;14.20;6.75;;;;;;;1.19;100.00;100350.89;1755385;80;20981;-86
2023/01/06 11:23:12;;;;;;;13.10;5.47;;;;;;;1.26;100.00;100356.48;1721277;82;21098;-86
2023/01/06 11:25:38;;;;;;;13.43;6.35;;;;;;;1.33;100.00;100358.64;1713258;83;20956;-85
2023/01/06 11:28:19;;;;;;;16.37;7.72;;;;;;;1.44;100.00;100368.32;1713965;83;21019;-85
2023/01/06 11:31:15;;;;;;;16.80;7.53;;;;;;;1.50;100.00;100371.48;1714246;83;21117;-86
2023/01/06 11:33:55;;;;;;;10.55;5.25;;;;;;;1.61;100.00;100383.33;1713661;83;21038;-87
2023/01/06 11:36:25;;;;;;;11.57;5.22;;;;;;;1.57;100.00;100381.60;1713925;83;21176;-86
2023/01/06 11:39:00;;;;;;;11.73;5.10;;;;;;;1.62;100.00;100388.94;1713983;83;21129;-93
2023/01/06 11:41:39;;;;;;;14.28;5.65;;;;;;;1.68;100.00;100393.45;1714048;83;21511;-86
2023/01/06 11:44:16;;;;;;;15.38;6.50;;;;;;;1.71;100.00;100401.81;1711299;83;20990;-87
2023/01/06 11:46:56;;;;;;;13.22;5.90;;;;;;;1.72;100.00;100406.09;1711687;83;21562;-87
2023/01/06 11:49:27;;;;;;;12.78;6.10;;;;;;;1.75;100.00;100415.50;1714074;83;22075;-87
2023/01/06 11:52:02;;;;;;;11.90;5.30;;;;;;;1.68;100.00;100431.45;1710973;83;21220;-87
2023/01/06 11:54:35;;;;;;;9.50;4.62;;;;;;;1.69;100.00;100431.74;1623780;88;21551;-86
2023/01/06 11:57:10;;;;;;;9.50;4.90;;;;;;;1.64;100.00;100440.02;1623851;88;21031;-90
2023/01/06 12:00:02;;;;;;;10.28;4.78;;;;;;;1.55;100.00;100443.38;1615934;88;21031;-85
2023/01/06 12:02:53;;;;;;;12.82;4.85;;;;;;;1.46;100.00;100437.97;1607956;88;21604;-84
2023/01/06 12:05:46;;;;;;;7.40;3.70;;;;;;;1.42;100.00;100448.70;1535005;91;21072;-86
2023/01/06 12:08:26;;;;;;;8.15;4.03;;;;;;;1.33;100.00;100462.69;1509174;93;21133;-85
2023/01/06 12:11:06;;;;;;;8.10;3.85;;;;;;;1.26;100.00;100473.78;1513083;93;21052;-84
2023/01/06 12:13:32;;;;;;;7.08;3.42;;;;;;;1.21;100.00;100470.42;1461787;96;21170;-85
2023/01/06 12:16:22;;;;;;;6.70;3.55;;;;;;;1.25;100.00;100474.30;1458802;96;21585;-86
2023/01/06 12:18:50;;;;;;;9.00;4.12;;;;;;;1.23;100.00;100482.15;1436531;98;21094;-83
2023/01/06 12:21:30;;;;;;;8.40;3.77;;;;;;;1.17;100.00;100478.98;1438428;98;21184;-84
2023/01/06 12:24:03;;;;;;;8.93;3.95;;;;;;;1.10;100.00;100484.27;1407516;101;21172;-83
2023/01/06 12:26:30;;;;;;;;;;;;;;;1.03;100.00;100481.61;1435196;98;21065;-86
2023/01/06 12:28:58;;;;;;;14.15;5.05;;;;;;;1.00;100.00;100494.44;1451688;98;21202;-82
2023/01/06 12:31:46;;;;;;;10.55;4.92;;;;;;;0.96;100.00;100501.98;1450463;96;21205;-84
2023/01/06 12:34:18;;;;;;;10.18;4.60;;;;;;;0.93;100.00;100508.20;1474059;96;21093;-84
2023/01/06 12:37:26;;;;;;;9.23;4.53;;;;;;;0.95;100.00;100518.92;1473270;97;21748;-81
2023/01/06 12:40:00;;;;;;;10.93;4.55;;;;;;;0.94;100.00;100535.84;1474900;96;21576;-85
2023/01/06 12:42:59;;;;;;;15.40;5.08;;;;;;;0.94;100.00;100545.64;1468689;96;21210;-84
2023/01/06 12:45:46;;;;;;;9.85;4.40;;;;;;;0.86;100.00;100555.92;1472800;97;21070;-82
2023/01/06 12:48:40;;;;;;;10.95;4.72;;;;;;;0.79;100.00;100558.52;1475639;97;21249;-89
2023/01/06 12:51:17;;;;;;;7.70;4.03;;;;;;;0.72;100.00;100565.64;1450917;97;21169;-81
2023/01/06 12:53:55;;;;;;;12.18;5.03;;;;;;;0.61;100.00;100562.20;1440713;97;21100;-80
2023/01/06 12:56:52;;;;;;;9.73;4.58;;;;;;;0.63;100.00;100576.09;1443163;98;21151;-82
2023/01/06 12:59:45;;;;;;;9.33;4.45;;;;;;;0.57;100.00;100592.78;1439450;98;21797;-89
2023/01/06 13:02:34;;;;;;;12.70;4.40;;;;;;;0.54;100.00;100604.59;1480224;94;21127;-90
2023/01/06 13:05:28;;;;;;;11.35;4.92;;;;;;;0.56;100.00;100600.41;1502775;93;21680;-90
2023/01/06 13:08:09;;;;;;;11.75;4.37;;;;;;;0.53;100.00;100612.73;1500209;93;21410;-86
2023/01/06 13:10:46;;;;;;;10.45;5.20;;;;;;;0.55;100.00;100618.16;1500480;92;21159;-81
2023/01/06 13:13:27;;;;;;;11.83;5.08;;;;;;;0.37;100.00;100627.09;1460400;97;21163;-84
2023/01/06 13:15:56;;;;;;;10.90;4.53;;;;;;;0.32;100.00;100647.54;1489149;95;21819;-83
2023/01/06 13:18:39;;;;;;;9.95;4.70;;;;;;;0.22;100.00;100653.17;1466469;96;21129;-88
2023/01/06 13:21:13;;;;;;;9.20;4.58;;;;;;;0.16;100.00;100659.23;1559394;89;21101;-83
2023/01/06 13:24:08;;;;;;;10.70;4.80;;;;;;;0.08;100.00;100663.84;1600822;89;21544;-83
2023/01/06 13:27:19;;;;;;;11.10;5.05;;;;;;;0.02;100.00;100668.06;1627572;87;21500;-82
2023/01/06 13:30:31;;;;;;;13.50;5.65;;;;;;;-0.05;100.00;100674.63;1631663;87;21023;-85
2023/01/06 13:33:41;;;;;;;10.68;5.05;;;;;;;-0.07;100.00;100689.88;1634148;87;21229;-87
2023/01/06 13:36:21;;;;;;;11.25;4.62;;;;;;;-0.06;100.00;100695.98;1632815;86;21078;-85
2023/01/06 13:39:07;;;;;;;10.35;4.75;;;;;;;-0.11;100.00;100716.43;1612042;87;21217;-84
2023/01/06 13:41:36;;;;;;;12.85;5.25;;;;;;;-0.09;100.00;100722.38;1568419;90;21629;-83
2023/01/06 13:44:08;;;;;;;13.28;4.95;;;;;;;-0.10;100.00;100722.54;1563125;90;21146;-85
2023/01/06 13:46:35;;;;;;;15.50;6.22;;;;;;;-0.15;100.00;100745.59;1564553;91;21099;-87
2023/01/06 13:49:04;;;;;;;17.77;6.75;;;;;;;-0.16;100.00;100738.67;1542103;91;21055;-86
2023/01/06 13:51:37;;;;;;;13.65;6.62;;;;;;;-0.21;100.00;100757.44;1575124;90;21296;-87
2023/01/06 13:54:05;;;;;;;;;;;;;;;-0.30;100.00;100758.05;1547239;92;21770;-86
2023/01/06 13:56:34;;;;;;;16.95;6.60;;;;;;;-0.36;100.00;100764.08;1539613;92;20614;-86
2023/01/06 13:59:22;;;;;;;12.93;5.95;;;;;;;-0.37;100.00;100769.06;1543907;92;21108;-87
2023/01/06 14:01:50;;;;;;;19.05;6.22;;;;;;;-0.37;100.00;100776.50;1543653;92;21019;-86
2023/01/06 14:04:41;;;;;;;14.95;5.90;;;;;;;-0.49;100.00;100786.73;1538419;92;21614;-87
2023/01/06 14:07:09;;;;;;;12.03;5.22;;;;;;;-0.56;100.00;100791.12;1541302;92;21099;-87
2023/01/06 14:09:39;;;;;;;14.03;6.03;;;;;;;-0.59;100.00;100790.64;1557630;88;21615;-86
2023/01/06 14:12:12;;;;;;;14.63;5.80;;;;;;;-0.59;100.00;100795.93;1596308;88;21122;-87
2023/01/06 14:14:39;;;;;;;12.35;5.85;;;;;;;-0.64;100.00;100805.75;1601846;88;21057;-86
2023/01/06 14:17:05;;;;;;;12.10;5.85;;;;;;;-0.69;100.00;100813.41;1575207;88;21237;-85
2023/01/06 14:19:37;;;;;;;16.62;5.87;;;;;;;-0.73;100.00;100822.21;1655114;85;21058;-86
2023/01/06 14:22:22;;;;;;;13.80;5.72;;;;;;;-0.86;100.00;100825.14;1671622;85;21067;-84
2023/01/06 14:25:04;;;;;;;17.57;7.22;;;;;;;-0.91;100.00;100827.02;1677479;85;21079;-86
2023/01/06 14:27:55;;;;;;;20.70;5.62;;;;;;;-0.98;100.00;100822.92;1643729;86;21043;-86
2023/01/06 14:33:35;;;;;;;12.25;5.33;;;;;;;-1.02;100.00;100834.86;1585466;89;21068;-87
2023/01/06 14:36:06;;;;;;;14.98;4.92;;;;;;;-1.05;100.00;100856.38;1586569;89;21154;-86
2023/01/06 14:38:37;;;;;;;20.77;6.35;;;;;;;-1.05;100.00;100850.27;1578692;90;21094;-89
2023/01/06 14:41:27;;;;;;;18.87;5.97;;;;;;;-1.19;100.00;100850.02;1516315;92;21114;-86
2023/01/06 14:44:01;;;;;;;16.40;6.12;;;;;;;-1.22;100.00;100858.31;1509504;94;21174;-85
2023/01/06 14:46:53;;;;;;;11.40;4.90;;;;;;;-1.23;100.00;100866.44;1445092;98;21307;-86
2023/01/06 14:49:33;;;;;;;14.95;4.92;;;;;;;-1.23;100.00;100869.89;1439224;98;21204;-87
2023/01/06 14:52:05;;;;;;;13.43;4.33;;;;;;;-1.31;100.00;100875.23;1441577;97;21137;-86
2023/01/06 14:54:38;;;;;;;11.78;4.30;;;;;;;-1.40;100.00;100882.38;1437435;98;21133;-86
2023/01/06 14:57:04;;;;;;;;;;;;;;;-1.44;100.00;100894.78;1439445;98;21232;-83
2023/01/06 14:59:31;;;;;;;10.30;4.42;;;;;;;-1.47;100.00;100895.98;1461109;97;20532;-86
2023/01/06 15:02:01;;;;;;;11.35;4.30;;;;;;;-1.46;100.00;100906.87;1463653;97;21204;-87
2023/01/06 15:04:33;;;;;;;10.60;4.50;;;;;;;-1.44;100.00;100900.92;1465623;97;21165;-86
2023/01/06 15:07:21;;;;;;;11.15;4.22;;;;;;;-1.40;100.00;100902.20;1446398;99;21129;-87
2023/01/06 15:09:50;;;;;;;13.22;4.72;;;;;;;-1.52;100.00;100901.46;1418144;99;21204;-86
2023/01/06 15:12:30;;;;;;;10.90;4.50;;;;;;;-1.55;100.00;100916.34;1403727;98;21167;-86
2023/01/06 15:14:59;;;;;;;10.25;3.67;;;;;;;-1.58;100.00;100933.86;1407486;99;21184;-86
2023/01/06 15:17:25;;;;;;;12.00;3.67;;;;;;;-1.64;100.00;100932.22;1409402;100;21200;-84
2023/01/06 15:19:53;;;;;;;13.40;4.55;;;;;;;-1.69;100.00;100934.55;1405445;99;21267;-89
2023/01/06 15:22:23;;;;;;;16.93;5.10;;;;;;;-1.70;100.00;100951.41;1405500;99;21173;-87
2023/01/06 15:24:49;;;;;;;10.48;4.08;;;;;;;-1.69;100.00;100963.61;1451647;96;21272;-86
2023/01/06 15:27:18;;;;;;;10.28;3.98;;;;;;;-1.70;100.00;100971.72;1449056;97;21167;-86
2023/01/06 15:29:54;;;;;;;10.80;4.00;;;;;;;-1.69;100.00;100969.39;1457614;96;21614;-84
2023/01/06 15:32:24;;;;;;;10.00;3.60;;;;;;;-1.67;100.00;100980.13;1428711;99;21154;-85
2023/01/06 15:34:51;;;;;;;7.37;3.37;;;;;;;-1.67;100.00;100980.63;1437828;98;21972;-86
2023/01/06 15:37:24;;;;;;;7.47;3.10;;;;;;;-1.69;100.00;100976.81;1442717;98;21181;-85
2023/01/06 15:39:51;;;;;;;9.30;3.02;;;;;;;-1.74;100.00;100985.73;1422641;99;21212;-85
2023/01/06 15:42:23;;;;;;;5.70;2.62;;;;;;;-1.73;100.00;101007.72;1471091;95;21139;-86
2023/01/06 15:45:01;;;;;;;6.78;2.72;;;;;;;-1.83;100.00;101004.74;1485714;95;21232;-84
2023/01/06 15:47:34;;;;;;;13.85;3.10;;;;;;;-1.88;100.00;101020.80;1482028;95;21159;-83
2023/01/06 15:50:07;;;;;;;11.45;3.58;;;;;;;-1.88;100.00;101024.75;1482604;95;21377;-85
2023/01/06 15:52:37;;;;;;;;;;;;;;;-1.91;100.00;101018.45;1481694;95;21216;-81
2023/01/06 15:55:07;;;;;;;12.00;4.00;;;;;;;-1.96;100.00;101037.46;1476595;96;20166;-82
2023/01/06 15:57:37;;;;;;;14.20;3.10;;;;;;;-1.95;100.00;101049.66;1475290;96;21085;-84
2023/01/06 16:00:07;;;;;;;7.17;2.87;;;;;;;-2.01;100.00;101043.73;1473776;96;21300;-82
2023/01/06 16:02:34;;;;;;;9.40;2.90;;;;;;;-2.08;100.00;101045.41;1474924;96;21216;-82
2023/01/06 16:05:01;;;;;;;9.20;3.42;;;;;;;-2.11;100.00;101051.83;1476403;96;21165;-84